EGAA Airport Information

Runway Information
Runway 07 Length 9121 ft width 148 ft
Elevation 206 ft Threshold 0 ft Heading 65
Runway 25 Length 9121 ft Width 148 ft
Elevation 268 ft Threshold 0 ft Heading 245
Runway 17 Length 6401 ft width 148 ft
Elevation 206 ft Threshold 525 ft Heading 162
Runway 35 Length 6401 ft Width 148 ft
Elevation 258 ft Threshold 502 ft Heading 342
Airport Frequencies
Type APP Name APP Frequency 128.5 MHZ
Type ATIS Name ATIS Frequency 128.2 MHZ
Type GND Name GND Frequency 121.75 MHZ
Type ILS 17 Name Frequency 110.9 MHZ
Type ILS 25 Name Frequency 109.9 MHZ
Type OPS Name OPS Frequency 26.48 MHZ
Type RDR Name DIRECTOR Frequency 120.9 MHZ
Type TWR Name TWR Frequency 118.3 MHZ
Airport Navaids
Type VOR-DME Name Belfast Frequency 117200 KHZ
Type NDB Name Aldergrove Frequency 332 KHZ
Airport Weather Information & NOTAM
ADDS - METARS form results

(1412 UTC 16 April 2021)
Data provider http://aviationweather.gov/metar/data/
 
METAR text: EGAA 161350Z 19009KT 9999 SCT048 12/01 Q1029
Conditions at: EGAA (BELFAST/ALDERGRO, GB) observed 1350 UTC 16 April 2021
Temperature: 12.0°C (54°F)
Dewpoint: 1.0°C (34°F) [RH = 47%]
Pressure (altimeter): 30.38 inches Hg (1029.0 mb)
Winds: from the S (190 degrees) at 10 MPH (9 knots; 4.6 m/s)
Visibility: 6 or more miles (10+ km)
Ceiling: at least 12,000 feet AGL
Clouds: scattered clouds at 4800 feet AGL
Weather: no significant weather observed at this time

METAR text: EGAA 161320Z 21011KT 170V250 9999 SCT045 12/01 Q1029
Conditions at: EGAA (BELFAST/ALDERGRO, GB) observed 1320 UTC 16 April 2021
Temperature: 12.0°C (54°F)
Dewpoint: 1.0°C (34°F) [RH = 47%]
Pressure (altimeter): 30.38 inches Hg (1029.0 mb)
Winds: from the SSW (210 degrees) at 13 MPH (11 knots; 5.7 m/s)
Visibility: 6 or more miles (10+ km)
Ceiling: at least 12,000 feet AGL
Clouds: scattered clouds at 4500 feet AGL
Weather: no significant weather observed at this time

Forecast for: EGAA (BELFAST/ALDERGRO, GB)
Text: TAF EGAA 161105Z 1612/1712 19008KT 9999 FEW045
Forecast period: 1200 UTC 16 April 2021 to 1200 UTC 17 April 2021
Forecast type: FROM: standard forecast or significant change
Winds: from the S (190 degrees) at 9 MPH (8 knots; 4.1 m/s)
Visibility: 6 or more miles (10+ km)
Ceiling: at least 12,000 feet AGL
Clouds: few clouds at 4500 feet AGL
Weather: no significant weather forecast for this period